Independence — WDF3297 — position and weather

sailwx.info

Track history (hours):
 
Tides and Currents Weather Stations Pressure Air Temp Water Temp Dewpoint Dewpoint Depression Visibility Wind Speed Wind Dir Waves Ship Positions

Independence

Owner: American Cruise Lines Inc., Delmar, DE. More information available from US FCC via Universal Licensing System and Coast Guard Vessel Documentation Center.

Last reported at 2017-Nov-18 14:56 UTC. Time now 2017-Nov-20 07:53 UTC.
Position N 30°19' W 081°38'.

Length 65 m; draft 2.5 m.

Type: Passenger vessel. MMSI: 367438210.

Date/timePositionNaut miles runAvg speedWind from/ knotsBaromVisibWave heightAir tempDewpointWater temp
2017-Nov-18 14:56N 30°19' W 081°38'0 0.0
2017-Nov-18 14:30N 30°19' W 081°38'6 0.6
2017-Nov-18 04:14N 30°25' W 081°35'8 5.0
2017-Nov-18 02:38N 30°29' W 081°28'1 7.0
2017-Nov-18 02:27N 30°30' W 081°28'2 5.1
2017-Nov-18 02:00N 30°32' W 081°28'3 6.1
2017-Nov-18 01:30N 30°35' W 081°28'3 6.1
2017-Nov-18 01:00N 30°38' W 081°29'3 5.1
2017-Nov-18 00:30N 30°40' W 081°28'0 0.2
2017-Nov-17 23:59N 30°40' W 081°28'0 0.0
2017-Nov-17 23:29N 30°40' W 081°28'0 0.0
2017-Nov-17 22:59N 30°40' W 081°28'0 0.0
2017-Nov-17 22:29N 30°40' W 081°28'0 0.0
2017-Nov-17 21:59N 30°40' W 081°28'0 0.0
2017-Nov-17 21:29N 30°40' W 081°28'0 0.0
2017-Nov-17 20:59N 30°40' W 081°28'0 0.0
2017-Nov-17 20:29N 30°40' W 081°28'0 0.0
2017-Nov-17 19:59N 30°40' W 081°28'0 0.0
2017-Nov-17 19:29N 30°40' W 081°28'0 0.0
2017-Nov-17 18:59N 30°40' W 081°28'  
2017-Nov-15 10:39N 31°50' W 081°09'1 8.2
2017-Nov-15 10:29N 31°51' W 081°08'3 4.6
2017-Nov-15 09:51N 31°53' W 081°05'2 6.1
2017-Nov-15 09:30N 31°55' W 081°06'2 5.0
2017-Nov-15 09:00N 31°57' W 081°04'3 5.3
2017-Nov-15 08:30N 31°59' W 081°02'2 4.4
2017-Nov-15 08:00N 32°01' W 081°03'3 5.5
2017-Nov-15 07:31N 32°04' W 081°01'2 4.9
2017-Nov-15 07:00N 32°05' W 080°59'3 5.5
2017-Nov-15 06:30N 32°05' W 081°02'3 6.3
2017-Nov-15 06:00N 32°05' W 081°05'0 0.0
2017-Nov-15 05:27N 32°05' W 081°05'0 0.0
2017-Nov-15 04:57N 32°05' W 081°05'0 0.0
2017-Nov-15 04:21N 32°05' W 081°05'0 0.0
2017-Nov-15 03:57N 32°05' W 081°05'0 0.0
2017-Nov-15 02:45N 32°05' W 081°05'0 0.0
2017-Nov-15 02:27N 32°05' W 081°05'0 0.0
2017-Nov-15 01:57N 32°05' W 081°05'0 0.0
2017-Nov-15 01:27N 32°05' W 081°05'0 0.0
2017-Nov-15 00:51N 32°05' W 081°05'0 0.0
2017-Nov-15 00:27N 32°05' W 081°05'0 0.0
2017-Nov-14 23:39N 32°05' W 081°05'0 0.0
2017-Nov-14 23:27N 32°05' W 081°05'0 0.0
2017-Nov-14 22:57N 32°05' W 081°05'0 0.0
2017-Nov-14 22:21N 32°05' W 081°05'0 0.0
2017-Nov-14 21:57N 32°05' W 081°05'0 0.0
2017-Nov-14 21:27N 32°05' W 081°05'0 0.0
2017-Nov-14 20:57N 32°05' W 081°05'0 0.0
2017-Nov-14 20:15N 32°05' W 081°05'0 0.0
2017-Nov-14 19:57N 32°05' W 081°05'0 0.0
2017-Nov-14 19:21N 32°05' W 081°05'0 0.0
2017-Nov-14 18:09N 32°05' W 081°05'0 0.0
2017-Nov-14 17:57N 32°05' W 081°05'0 0.0
2017-Nov-14 17:27N 32°05' W 081°05'0 0.0
2017-Nov-14 16:57N 32°05' W 081°05'0 0.0
2017-Nov-14 15:51N 32°05' W 081°05'0 0.0
2017-Nov-14 15:21N 32°05' W 081°05'0 0.0
2017-Nov-14 14:57N 32°05' W 081°05'0 0.0
2017-Nov-14 14:27N 32°05' W 081°05'0 0.0
2017-Nov-14 13:57N 32°05' W 081°05'0 0.0
2017-Nov-14 13:27N 32°05' W 081°05'0 0.0
2017-Nov-14 12:51N 32°05' W 081°05'0 0.0
2017-Nov-14 11:39N 32°05' W 081°05'0 0.0
2017-Nov-14 11:09N 32°05' W 081°05'0 0.0
2017-Nov-14 10:57N 32°05' W 081°05'0 0.0
2017-Nov-14 10:21N 32°05' W 081°05'0 0.0
2017-Nov-14 09:57N 32°05' W 081°05'0 0.0
2017-Nov-14 09:15N 32°05' W 081°05'0 0.0
2017-Nov-14 08:57N 32°05' W 081°05'0 0.0
2017-Nov-14 08:03N 32°05' W 081°05'0 0.0
2017-Nov-14 07:51N 32°05' W 081°05'0 0.0
2017-Nov-14 07:27N 32°05' W 081°05'0 0.0
2017-Nov-14 06:45N 32°05' W 081°05'0 0.0
2017-Nov-14 05:39N 32°05' W 081°05'0 0.0
2017-Nov-14 05:27N 32°05' W 081°05'0 0.0
2017-Nov-14 04:57N 32°05' W 081°05'0 0.0
2017-Nov-14 04:21N 32°05' W 081°05'0 0.0
2017-Nov-14 01:57N 32°05' W 081°05'0 0.0
2017-Nov-14 00:57N 32°05' W 081°05'0 0.0
2017-Nov-14 00:21N 32°05' W 081°05'0 0.0
2017-Nov-13 23:57N 32°05' W 081°05'0 0.0
2017-Nov-13 23:21N 32°05' W 081°05'0 0.0
2017-Nov-13 22:51N 32°05' W 081°05'0 0.0
2017-Nov-13 22:27N 32°05' W 081°05'0 0.0
2017-Nov-13 21:58N 32°05' W 081°05'  
2017-Nov-09 23:02N 34°13' W 077°57'0 9.2
2017-Nov-09 23:00N 34°14' W 077°57'1 2.0
2017-Nov-09 22:28N 34°15' W 077°57'0 0.0
2017-Nov-09 21:58N 34°15' W 077°57'0 0.0
2017-Nov-09 21:28N 34°15' W 077°57'0 0.0
2017-Nov-09 20:58N 34°15' W 077°57'0 0.0
2017-Nov-09 20:28N 34°15' W 077°57'0 0.0
2017-Nov-09 19:58N 34°15' W 077°57'0 0.0
2017-Nov-09 19:28N 34°15' W 077°57'0 0.0
2017-Nov-09 18:58N 34°15' W 077°57'0 0.0
2017-Nov-09 18:31N 34°15' W 077°57'0 0.0
2017-Nov-09 18:01N 34°15' W 077°57'0 0.0
2017-Nov-09 17:31N 34°15' W 077°57'0 0.0
2017-Nov-09 17:01N 34°15' W 077°57'0 0.0
2017-Nov-09 16:31N 34°15' W 077°57'0 0.0
2017-Nov-09 16:01N 34°15' W 077°57'0 0.0
2017-Nov-09 15:31N 34°15' W 077°57'0 0.0
2017-Nov-09 15:00N 34°15' W 077°57'0 0.0
2017-Nov-09 14:31N 34°15' W 077°57'0 0.0
2017-Nov-09 14:01N 34°15' W 077°57'0 0.0
2017-Nov-09 13:31N 34°15' W 077°57'0 0.0
2017-Nov-09 13:01N 34°15' W 077°57'0 0.0
2017-Nov-09 12:31N 34°15' W 077°57'0 0.0
2017-Nov-09 12:00N 34°15' W 077°57'0 0.0
2017-Nov-09 11:31N 34°15' W 077°57'0 0.0
2017-Nov-09 11:01N 34°15' W 077°57'0 0.0
2017-Nov-09 10:31N 34°15' W 077°57'0 0.0
2017-Nov-09 10:01N 34°15' W 077°57'0 0.0
2017-Nov-09 09:30N 34°15' W 077°57'0 0.0
2017-Nov-09 09:01N 34°15' W 077°57'0 0.0
2017-Nov-09 08:31N 34°15' W 077°57'0 0.0
2017-Nov-09 08:01N 34°15' W 077°57'0 0.0
2017-Nov-09 07:31N 34°15' W 077°57'0 0.5
2017-Nov-09 07:01N 34°14' W 077°57'59 7.0
2017-Nov-08 22:34N 34°38' W 076°52'111.4
2017-Nov-08 22:30N 34°38' W 076°51'611.4
2017-Nov-08 22:01N 34°39' W 076°44'4 8.1
2017-Nov-08 21:30N 34°42' W 076°41'2 3.2
2017-Nov-08 20:59N 34°43' W 076°42'0 0.0
2017-Nov-08 20:29N 34°43' W 076°42'0 0.0
2017-Nov-08 19:59N 34°43' W 076°42'0 0.0
2017-Nov-08 19:29N 34°43' W 076°42'0 0.0
2017-Nov-08 18:59N 34°43' W 076°42'0 0.0
2017-Nov-08 18:29N 34°43' W 076°42'0 0.0
2017-Nov-08 17:59N 34°43' W 076°42'0 0.0
2017-Nov-08 17:29N 34°43' W 076°42'0 0.0
2017-Nov-08 16:59N 34°43' W 076°42'0 0.0
2017-Nov-08 16:29N 34°43' W 076°42'0 0.0
2017-Nov-08 15:59N 34°43' W 076°42'0 0.0
2017-Nov-08 15:26N 34°43' W 076°42'0 0.0
2017-Nov-08 14:59N 34°43' W 076°42'  
Track history (hours):
 
Tides and Currents Weather Stations Pressure Air Temp Water Temp Dewpoint Dewpoint Depression Visibility Wind Speed Wind Dir Waves Ship Positions

Independence

Owner: American Cruise Lines Inc., Delmar, DE. More information available from US FCC via Universal Licensing System and Coast Guard Vessel Documentation Center.

Last reported at 2017-Nov-18 14:56 UTC. Time now 2017-Nov-20 07:53 UTC.
Position N 30°19' W 081°38'.

Length 65 m; draft 2.5 m.

Type: Passenger vessel. MMSI: 367438210.

Date/timePositionNaut miles runAvg speedWind from/ knotsBaromVisibWave heightAir tempDewpointWater temp
2017-Nov-18 14:56N 30°19' W 081°38'0 0.0
2017-Nov-18 14:30N 30°19' W 081°38'6 0.6
2017-Nov-18 04:14N 30°25' W 081°35'8 5.0
2017-Nov-18 02:38N 30°29' W 081°28'1 7.0
2017-Nov-18 02:27N 30°30' W 081°28'2 5.1
2017-Nov-18 02:00N 30°32' W 081°28'3 6.1
2017-Nov-18 01:30N 30°35' W 081°28'3 6.1
2017-Nov-18 01:00N 30°38' W 081°29'3 5.1
2017-Nov-18 00:30N 30°40' W 081°28'0 0.2
2017-Nov-17 23:59N 30°40' W 081°28'0 0.0
2017-Nov-17 23:29N 30°40' W 081°28'0 0.0
2017-Nov-17 22:59N 30°40' W 081°28'0 0.0
2017-Nov-17 22:29N 30°40' W 081°28'0 0.0
2017-Nov-17 21:59N 30°40' W 081°28'0 0.0
2017-Nov-17 21:29N 30°40' W 081°28'0 0.0
2017-Nov-17 20:59N 30°40' W 081°28'0 0.0
2017-Nov-17 20:29N 30°40' W 081°28'0 0.0
2017-Nov-17 19:59N 30°40' W 081°28'0 0.0
2017-Nov-17 19:29N 30°40' W 081°28'0 0.0
2017-Nov-17 18:59N 30°40' W 081°28'  
2017-Nov-15 10:39N 31°50' W 081°09'1 8.2
2017-Nov-15 10:29N 31°51' W 081°08'3 4.6
2017-Nov-15 09:51N 31°53' W 081°05'2 6.1
2017-Nov-15 09:30N 31°55' W 081°06'2 5.0
2017-Nov-15 09:00N 31°57' W 081°04'3 5.3
2017-Nov-15 08:30N 31°59' W 081°02'2 4.4
2017-Nov-15 08:00N 32°01' W 081°03'3 5.5
2017-Nov-15 07:31N 32°04' W 081°01'2 4.9
2017-Nov-15 07:00N 32°05' W 080°59'3 5.5
2017-Nov-15 06:30N 32°05' W 081°02'3 6.3
2017-Nov-15 06:00N 32°05' W 081°05'0 0.0
2017-Nov-15 05:27N 32°05' W 081°05'0 0.0
2017-Nov-15 04:57N 32°05' W 081°05'0 0.0
2017-Nov-15 04:21N 32°05' W 081°05'0 0.0
2017-Nov-15 03:57N 32°05' W 081°05'0 0.0
2017-Nov-15 02:45N 32°05' W 081°05'0 0.0
2017-Nov-15 02:27N 32°05' W 081°05'0 0.0
2017-Nov-15 01:57N 32°05' W 081°05'0 0.0
2017-Nov-15 01:27N 32°05' W 081°05'0 0.0
2017-Nov-15 00:51N 32°05' W 081°05'0 0.0
2017-Nov-15 00:27N 32°05' W 081°05'0 0.0
2017-Nov-14 23:39N 32°05' W 081°05'0 0.0
2017-Nov-14 23:27N 32°05' W 081°05'0 0.0
2017-Nov-14 22:57N 32°05' W 081°05'0 0.0
2017-Nov-14 22:21N 32°05' W 081°05'0 0.0
2017-Nov-14 21:57N 32°05' W 081°05'0 0.0
2017-Nov-14 21:27N 32°05' W 081°05'0 0.0
2017-Nov-14 20:57N 32°05' W 081°05'0 0.0
2017-Nov-14 20:15N 32°05' W 081°05'0 0.0
2017-Nov-14 19:57N 32°05' W 081°05'0 0.0
2017-Nov-14 19:21N 32°05' W 081°05'0 0.0
2017-Nov-14 18:09N 32°05' W 081°05'0 0.0
2017-Nov-14 17:57N 32°05' W 081°05'0 0.0
2017-Nov-14 17:27N 32°05' W 081°05'0 0.0
2017-Nov-14 16:57N 32°05' W 081°05'0 0.0
2017-Nov-14 15:51N 32°05' W 081°05'0 0.0
2017-Nov-14 15:21N 32°05' W 081°05'0 0.0
2017-Nov-14 14:57N 32°05' W 081°05'0 0.0
2017-Nov-14 14:27N 32°05' W 081°05'0 0.0
2017-Nov-14 13:57N 32°05' W 081°05'0 0.0
2017-Nov-14 13:27N 32°05' W 081°05'0 0.0
2017-Nov-14 12:51N 32°05' W 081°05'0 0.0
2017-Nov-14 11:39N 32°05' W 081°05'0 0.0
2017-Nov-14 11:09N 32°05' W 081°05'0 0.0
2017-Nov-14 10:57N 32°05' W 081°05'0 0.0
2017-Nov-14 10:21N 32°05' W 081°05'0 0.0
2017-Nov-14 09:57N 32°05' W 081°05'0 0.0
2017-Nov-14 09:15N 32°05' W 081°05'0 0.0
2017-Nov-14 08:57N 32°05' W 081°05'0 0.0
2017-Nov-14 08:03N 32°05' W 081°05'0 0.0
2017-Nov-14 07:51N 32°05' W 081°05'0 0.0
2017-Nov-14 07:27N 32°05' W 081°05'0 0.0
2017-Nov-14 06:45N 32°05' W 081°05'0 0.0
2017-Nov-14 05:39N 32°05' W 081°05'0 0.0
2017-Nov-14 05:27N 32°05' W 081°05'0 0.0
2017-Nov-14 04:57N 32°05' W 081°05'0 0.0
2017-Nov-14 04:21N 32°05' W 081°05'0 0.0
2017-Nov-14 01:57N 32°05' W 081°05'0 0.0
2017-Nov-14 00:57N 32°05' W 081°05'0 0.0
2017-Nov-14 00:21N 32°05' W 081°05'0 0.0
2017-Nov-13 23:57N 32°05' W 081°05'0 0.0
2017-Nov-13 23:21N 32°05' W 081°05'0 0.0
2017-Nov-13 22:51N 32°05' W 081°05'0 0.0
2017-Nov-13 22:27N 32°05' W 081°05'0 0.0
2017-Nov-13 21:58N 32°05' W 081°05'  
2017-Nov-09 23:02N 34°13' W 077°57'0 9.2
2017-Nov-09 23:00N 34°14' W 077°57'1 2.0
2017-Nov-09 22:28N 34°15' W 077°57'0 0.0
2017-Nov-09 21:58N 34°15' W 077°57'0 0.0
2017-Nov-09 21:28N 34°15' W 077°57'0 0.0
2017-Nov-09 20:58N 34°15' W 077°57'0 0.0
2017-Nov-09 20:28N 34°15' W 077°57'0 0.0
2017-Nov-09 19:58N 34°15' W 077°57'0 0.0
2017-Nov-09 19:28N 34°15' W 077°57'0 0.0
2017-Nov-09 18:58N 34°15' W 077°57'0 0.0
2017-Nov-09 18:31N 34°15' W 077°57'0 0.0
2017-Nov-09 18:01N 34°15' W 077°57'0 0.0
2017-Nov-09 17:31N 34°15' W 077°57'0 0.0
2017-Nov-09 17:01N 34°15' W 077°57'0 0.0
2017-Nov-09 16:31N 34°15' W 077°57'0 0.0
2017-Nov-09 16:01N 34°15' W 077°57'0 0.0
2017-Nov-09 15:31N 34°15' W 077°57'0 0.0
2017-Nov-09 15:00N 34°15' W 077°57'0 0.0
2017-Nov-09 14:31N 34°15' W 077°57'0 0.0
2017-Nov-09 14:01N 34°15' W 077°57'0 0.0
2017-Nov-09 13:31N 34°15' W 077°57'0 0.0
2017-Nov-09 13:01N 34°15' W 077°57'0 0.0
2017-Nov-09 12:31N 34°15' W 077°57'0 0.0
2017-Nov-09 12:00N 34°15' W 077°57'0 0.0
2017-Nov-09 11:31N 34°15' W 077°57'0 0.0
2017-Nov-09 11:01N 34°15' W 077°57'0 0.0
2017-Nov-09 10:31N 34°15' W 077°57'0 0.0
2017-Nov-09 10:01N 34°15' W 077°57'0 0.0
2017-Nov-09 09:30N 34°15' W 077°57'0 0.0
2017-Nov-09 09:01N 34°15' W 077°57'0 0.0
2017-Nov-09 08:31N 34°15' W 077°57'0 0.0
2017-Nov-09 08:01N 34°15' W 077°57'0 0.0
2017-Nov-09 07:31N 34°15' W 077°57'0 0.5
2017-Nov-09 07:01N 34°14' W 077°57'59 7.0
2017-Nov-08 22:34N 34°38' W 076°52'111.4
2017-Nov-08 22:30N 34°38' W 076°51'611.4
2017-Nov-08 22:01N 34°39' W 076°44'4 8.1
2017-Nov-08 21:30N 34°42' W 076°41'2 3.2
2017-Nov-08 20:59N 34°43' W 076°42'0 0.0
2017-Nov-08 20:29N 34°43' W 076°42'0 0.0
2017-Nov-08 19:59N 34°43' W 076°42'0 0.0
2017-Nov-08 19:29N 34°43' W 076°42'0 0.0
2017-Nov-08 18:59N 34°43' W 076°42'0 0.0
2017-Nov-08 18:29N 34°43' W 076°42'0 0.0
2017-Nov-08 17:59N 34°43' W 076°42'0 0.0
2017-Nov-08 17:29N 34°43' W 076°42'0 0.0
2017-Nov-08 16:59N 34°43' W 076°42'0 0.0
2017-Nov-08 16:29N 34°43' W 076°42'0 0.0
2017-Nov-08 15:59N 34°43' W 076°42'0 0.0
2017-Nov-08 15:26N 34°43' W 076°42'0 0.0
2017-Nov-08 14:59N 34°43' W 076°42'  

Dump ship's entire track history